sensor_id;sensor_type;location;lat;lon;timestamp;pressure;altitude;pressure_sealevel;temperature;humidity
76374;BME280;65197;50.164;8.012;2023-07-31T13:10:45;71051.63;;;-144.13;54.36
76374;BME280;65197;50.164;8.012;2023-07-31T13:13:11;71055.53;;;-144.13;55.65
76374;BME280;65197;50.164;8.012;2023-07-31T13:15:36;71096.47;;;-144.13;55.88
76374;BME280;65197;50.164;8.012;2023-07-31T13:18:01;71151.06;;;-144.13;56.76
76374;BME280;65197;50.164;8.012;2023-07-31T13:20:27;71186.16;;;-144.13;56.99
76374;BME280;65197;50.164;8.012;2023-07-31T13:22:52;71229.03;;;-144.13;58.93
76374;BME280;65197;50.164;8.012;2023-07-31T13:25:18;71271.94;;;-144.13;58.91
76374;BME280;65197;50.164;8.012;2023-07-31T13:27:43;71312.88;;;-144.13;60.25
76374;BME280;65197;50.164;8.012;2023-07-31T13:30:09;71357.72;;;-144.13;61.74
76374;BME280;65197;50.164;8.012;2023-07-31T13:32:34;71390.84;;;-144.13;62.73
76374;BME280;65197;50.164;8.012;2023-07-31T13:35:07;71427.91;;;-144.13;63.72
76374;BME280;65197;50.164;8.012;2023-07-31T13:37:32;71449.34;;;-144.13;64.27
76374;BME280;65197;50.164;8.012;2023-07-31T13:39:58;71459.09;;;-144.13;65.15
76374;BME280;65197;50.164;8.012;2023-07-31T13:42:23;71470.78;;;-144.13;65.97
76374;BME280;65197;50.164;8.012;2023-07-31T13:44:48;71476.63;;;-144.13;66.85
76374;BME280;65197;50.164;8.012;2023-07-31T13:47:14;71472.75;;;-144.13;65.90
76374;BME280;65197;50.164;8.012;2023-07-31T13:49:40;71451.28;;;-144.13;67.49
76374;BME280;65197;50.164;8.012;2023-07-31T13:52:06;71443.50;;;-144.13;66.39
76374;BME280;65197;50.164;8.012;2023-07-31T13:54:32;71418.16;;;-144.13;67.15
76374;BME280;65197;50.164;8.012;2023-07-31T13:56:57;71402.56;;;-144.13;65.85
76374;BME280;65197;50.164;8.012;2023-07-31T13:59:23;71375.25;;;-144.13;65.36
76374;BME280;65197;50.164;8.012;2023-07-31T14:01:49;71363.56;;;-144.13;66.03
76374;BME280;65197;50.164;8.012;2023-07-31T14:04:15;71369.41;;;-144.13;65.91
76374;BME280;65197;50.164;8.012;2023-07-31T14:06:40;71365.50;;;-144.13;66.16
76374;BME280;65197;50.164;8.012;2023-07-31T14:09:06;71369.41;;;-144.13;66.24
76374;BME280;65197;50.164;8.012;2023-07-31T14:11:32;71361.59;;;-144.13;66.72
76374;BME280;65197;50.164;8.012;2023-07-31T14:13:57;71336.25;;;-144.13;66.38
76374;BME280;65197;50.164;8.012;2023-07-31T14:16:23;71291.41;;;-144.13;67.22
76374;BME280;65197;50.164;8.012;2023-07-31T14:18:48;71268.03;;;-144.13;64.20
76374;BME280;65197;50.164;8.012;2023-07-31T14:21:14;71289.47;;;-144.13;63.98
76374;BME280;65197;50.164;8.012;2023-07-31T14:23:40;71275.81;;;-144.13;66.14
76374;BME280;65197;50.164;8.012;2023-07-31T14:26:06;71287.53;;;-144.13;65.36
76374;BME280;65197;50.164;8.012;2023-07-31T14:28:31;71303.13;;;-144.13;66.27
76374;BME280;65197;50.164;8.012;2023-07-31T14:30:57;71283.63;;;-144.13;65.55
76374;BME280;65197;50.164;8.012;2023-07-31T14:33:23;71279.72;;;-144.13;65.77
76374;BME280;65197;50.164;8.012;2023-07-31T14:35:48;71322.63;;;-144.13;65.24
76374;BME280;65197;50.164;8.012;2023-07-31T14:38:14;71320.66;;;-144.13;65.40
76374;BME280;65197;50.164;8.012;2023-07-31T14:40:39;71334.31;;;-144.13;66.23
76374;BME280;65197;50.164;8.012;2023-07-31T14:43:05;71332.38;;;-144.13;66.83
76374;BME280;65197;50.164;8.012;2023-07-31T14:45:30;71342.13;;;-144.13;67.10
76374;BME280;65197;50.164;8.012;2023-07-31T14:47:55;71357.72;;;-144.13;66.37
76374;BME280;65197;50.164;8.012;2023-07-31T14:50:21;71359.66;;;-144.13;66.63
76374;BME280;65197;50.164;8.012;2023-07-31T14:52:47;71365.50;;;-144.13;67.26
76374;BME280;65197;50.164;8.012;2023-07-31T14:55:13;71353.81;;;-144.13;67.87
76374;BME280;65197;50.164;8.012;2023-07-31T14:57:38;71351.84;;;-144.13;66.62
76374;BME280;65197;50.164;8.012;2023-07-31T15:00:04;71349.91;;;-144.13;66.58
76374;BME280;65197;50.164;8.012;2023-07-31T15:02:36;71346.00;;;-144.13;65.99
76374;BME280;65197;50.164;8.012;2023-07-31T15:05:01;71338.22;;;-144.13;66.36
76374;BME280;65197;50.164;8.012;2023-07-31T15:07:26;71353.81;;;-144.13;66.33
76374;BME280;65197;50.164;8.012;2023-07-31T15:09:52;71369.41;;;-144.13;66.10
76374;BME280;65197;50.164;8.012;2023-07-31T15:12:17;71373.31;;;-144.13;66.08
76374;BME280;65197;50.164;8.012;2023-07-31T15:14:43;71379.16;;;-144.13;66.84
76374;BME280;65197;50.164;8.012;2023-07-31T15:17:08;71385.00;;;-144.13;67.91
76374;BME280;65197;50.164;8.012;2023-07-31T15:19:34;71402.56;;;-144.13;67.62
76374;BME280;65197;50.164;8.012;2023-07-31T15:22:02;71431.81;;;-144.13;69.48
76374;BME280;65197;50.164;8.012;2023-07-31T15:24:27;71498.09;;;-144.13;70.31
76374;BME280;65197;50.164;8.012;2023-07-31T15:26:53;71525.38;;;-144.13;72.06
76374;BME280;65197;50.164;8.012;2023-07-31T15:29:18;71552.69;;;-144.13;72.55
76374;BME280;65197;50.164;8.012;2023-07-31T15:31:45;71570.22;;;-144.13;74.11
76374;BME280;65197;50.164;8.012;2023-07-31T15:34:11;71595.56;;;-144.13;77.27
76374;BME280;65197;50.164;8.012;2023-07-31T15:36:37;71661.88;;;-144.13;82.48
76374;BME280;65197;50.164;8.012;2023-07-31T15:39:02;71704.75;;;-144.13;87.36
76374;BME280;65197;50.164;8.012;2023-07-31T15:41:28;71716.47;;;-144.13;87.50
76374;BME280;65197;50.164;8.012;2023-07-31T15:43:55;71739.88;;;-144.13;88.40
76374;BME280;65197;50.164;8.012;2023-07-31T15:46:20;71751.56;;;-144.13;88.79
76374;BME280;65197;50.164;8.012;2023-07-31T15:48:45;71755.47;;;-144.13;90.12
76374;BME280;65197;50.164;8.012;2023-07-31T15:51:11;71755.47;;;-144.13;88.34
76374;BME280;65197;50.164;8.012;2023-07-31T15:53:37;71735.97;;;-144.13;85.29
76374;BME280;65197;50.164;8.012;2023-07-31T15:56:02;71714.50;;;-144.13;86.15
76374;BME280;65197;50.164;8.012;2023-07-31T15:58:28;71696.97;;;-144.13;85.06
76374;BME280;65197;50.164;8.012;2023-07-31T16:00:54;71681.38;;;-144.13;82.30
76374;BME280;65197;50.164;8.012;2023-07-31T16:03:19;71669.66;;;-144.13;82.98
76374;BME280;65197;50.164;8.012;2023-07-31T16:05:49;71654.06;;;-144.13;82.10
76374;BME280;65197;50.164;8.012;2023-07-31T16:08:14;71642.38;;;-144.13;82.01
76374;BME280;65197;50.164;8.012;2023-07-31T16:10:40;71630.66;;;-144.13;81.28
76374;BME280;65197;50.164;8.012;2023-07-31T16:13:05;71626.78;;;-144.13;81.27
76374;BME280;65197;50.164;8.012;2023-07-31T16:15:31;71615.06;;;-144.13;79.83
76374;BME280;65197;50.164;8.012;2023-07-31T16:17:57;71617.03;;;-144.13;80.02
76374;BME280;65197;50.164;8.012;2023-07-31T16:20:22;71620.91;;;-144.13;79.04
76374;BME280;65197;50.164;8.012;2023-07-31T16:22:50;71618.97;;;-144.13;79.53
76374;BME280;65197;50.164;8.012;2023-07-31T16:25:16;71624.81;;;-144.13;79.85
76374;BME280;65197;50.164;8.012;2023-07-31T16:27:41;71607.28;;;-144.13;79.41
76374;BME280;65197;50.164;8.012;2023-07-31T16:30:07;71601.44;;;-144.13;77.72
76374;BME280;65197;50.164;8.012;2023-07-31T16:32:33;71599.47;;;-144.13;77.16
76374;BME280;65197;50.164;8.012;2023-07-31T16:34:58;71597.53;;;-144.13;77.41
76374;BME280;65197;50.164;8.012;2023-07-31T16:37:24;71615.06;;;-144.13;77.53
76374;BME280;65197;50.164;8.012;2023-07-31T16:39:50;71615.06;;;-144.13;77.87
76374;BME280;65197;50.164;8.012;2023-07-31T16:42:21;71624.81;;;-144.13;80.16
76374;BME280;65197;50.164;8.012;2023-07-31T16:44:47;71659.91;;;-144.13;83.09
76374;BME280;65197;50.164;8.012;2023-07-31T16:47:13;71685.28;;;-144.13;85.75
76374;BME280;65197;50.164;8.012;2023-07-31T16:49:39;71708.66;;;-144.13;87.95
76374;BME280;65197;50.164;8.012;2023-07-31T16:52:05;71718.41;;;-144.13;88.77
76374;BME280;65197;50.164;8.012;2023-07-31T16:54:30;71722.31;;;-144.13;89.65
76374;BME280;65197;50.164;8.012;2023-07-31T16:56:58;71732.06;;;-144.13;90.80
76374;BME280;65197;50.164;8.012;2023-07-31T16:59:23;71751.56;;;-144.13;91.60
76374;BME280;65197;50.164;8.012;2023-07-31T17:01:49;71751.56;;;-144.13;91.27
76374;BME280;65197;50.164;8.012;2023-07-31T17:04:16;71751.56;;;-144.13;92.23
76374;BME280;65197;50.164;8.012;2023-07-31T17:06:42;71759.34;;;-144.13;91.83
76374;BME280;65197;50.164;8.012;2023-07-31T17:09:07;71771.06;;;-144.13;93.67
76374;BME280;65197;50.164;8.012;2023-07-31T17:11:35;71771.06;;;-144.13;93.04
76374;BME280;65197;50.164;8.012;2023-07-31T17:14:02;71763.25;;;-144.13;93.17
76374;BME280;65197;50.164;8.012;2023-07-31T17:16:34;71759.34;;;-144.13;92.99
76374;BME280;65197;50.164;8.012;2023-07-31T17:19:01;71749.63;;;-144.13;92.18
76374;BME280;65197;50.164;8.012;2023-07-31T17:21:26;71737.91;;;-144.13;92.53
76374;BME280;65197;50.164;8.012;2023-07-31T17:23:52;71726.22;;;-144.13;92.70
76374;BME280;65197;50.164;8.012;2023-07-31T17:26:17;71724.25;;;-144.13;92.14
76374;BME280;65197;50.164;8.012;2023-07-31T17:28:43;71728.16;;;-144.13;93.23
76374;BME280;65197;50.164;8.012;2023-07-31T17:31:09;71724.25;;;-144.13;93.27
76374;BME280;65197;50.164;8.012;2023-07-31T17:33:35;71722.31;;;-144.13;92.57
76374;BME280;65197;50.164;8.012;2023-07-31T17:36:00;71704.75;;;-144.13;93.21
76374;BME280;65197;50.164;8.012;2023-07-31T17:38:26;71704.75;;;-144.13;93.10
76374;BME280;65197;50.164;8.012;2023-07-31T17:40:51;71704.75;;;-144.13;93.51
76374;BME280;65197;50.164;8.012;2023-07-31T17:43:17;71693.06;;;-144.13;92.99
76374;BME280;65197;50.164;8.012;2023-07-31T17:45:43;71679.41;;;-144.13;92.13
76374;BME280;65197;50.164;8.012;2023-07-31T17:48:08;71677.47;;;-144.13;92.27
76374;BME280;65197;50.164;8.012;2023-07-31T17:50:34;71669.66;;;-144.13;93.38
76374;BME280;65197;50.164;8.012;2023-07-31T17:52:59;71669.66;;;-144.13;93.03
76374;BME280;65197;50.164;8.012;2023-07-31T17:55:24;71667.72;;;-144.13;93.27
76374;BME280;65197;50.164;8.012;2023-07-31T17:57:50;71681.38;;;-144.13;92.25
76374;BME280;65197;50.164;8.012;2023-07-31T18:00:15;71687.22;;;-144.13;92.62
76374;BME280;65197;50.164;8.012;2023-07-31T18:02:41;71683.31;;;-144.13;92.99
76374;BME280;65197;50.164;8.012;2023-07-31T18:05:07;71691.13;;;-144.13;93.46
76374;BME280;65197;50.164;8.012;2023-07-31T18:07:33;71689.16;;;-144.13;93.33
76374;BME280;65197;50.164;8.012;2023-07-31T18:09:58;71696.97;;;-144.13;93.03
76374;BME280;65197;50.164;8.012;2023-07-31T18:12:25;71693.06;;;-144.13;93.87
76374;BME280;65197;50.164;8.012;2023-07-31T18:14:51;71696.97;;;-144.13;93.97
76374;BME280;65197;50.164;8.012;2023-07-31T18:17:16;71696.97;;;-144.13;94.08
76374;BME280;65197;50.164;8.012;2023-07-31T18:19:42;71685.28;;;-144.13;94.21
76374;BME280;65197;50.164;8.012;2023-07-31T18:22:07;71681.38;;;-144.13;94.56
76374;BME280;65197;50.164;8.012;2023-07-31T18:24:32;71677.47;;;-144.13;95.27
76374;BME280;65197;50.164;8.012;2023-07-31T18:26:58;71673.56;;;-144.13;94.42
76374;BME280;65197;50.164;8.012;2023-07-31T18:29:24;71665.78;;;-144.13;94.70
76374;BME280;65197;50.164;8.012;2023-07-31T18:31:49;71665.78;;;-144.13;95.23
76374;BME280;65197;50.164;8.012;2023-07-31T18:34:15;71628.72;;;-144.13;94.99
76374;BME280;65197;50.164;8.012;2023-07-31T18:36:40;71628.72;;;-144.13;93.66
76374;BME280;65197;50.164;8.012;2023-07-31T18:39:07;71574.13;;;-144.13;92.13
76374;BME280;65197;50.164;8.012;2023-07-31T18:41:33;71583.88;;;-144.13;92.27
76374;BME280;65197;50.164;8.012;2023-07-31T18:43:58;71583.88;;;-144.13;92.48
76374;BME280;65197;50.164;8.012;2023-07-31T18:46:24;71605.31;;;-144.13;91.25
76374;BME280;65197;50.164;8.012;2023-07-31T18:48:50;71615.06;;;-144.13;91.53
76374;BME280;65197;50.164;8.012;2023-07-31T18:51:15;71615.06;;;-144.13;92.22
76374;BME280;65197;50.164;8.012;2023-07-31T18:53:41;71634.56;;;-144.13;92.62
76374;BME280;65197;50.164;8.012;2023-07-31T18:56:06;71638.47;;;-144.13;92.85
76374;BME280;65197;50.164;8.012;2023-07-31T18:58:32;71644.31;;;-144.13;92.73
76374;BME280;65197;50.164;8.012;2023-07-31T19:00:57;71642.38;;;-144.13;92.69
76374;BME280;65197;50.164;8.012;2023-07-31T19:03:22;71626.78;;;-144.13;91.78
76374;BME280;65197;50.164;8.012;2023-07-31T19:05:50;71628.72;;;-144.13;91.80
76374;BME280;65197;50.164;8.012;2023-07-31T19:08:15;71622.88;;;-144.13;91.18
76374;BME280;65197;50.164;8.012;2023-07-31T19:10:41;71622.88;;;-144.13;91.54
76374;BME280;65197;50.164;8.012;2023-07-31T19:13:06;71620.91;;;-144.13;91.33
76374;BME280;65197;50.164;8.012;2023-07-31T19:15:33;71630.66;;;-144.13;91.86
76374;BME280;65197;50.164;8.012;2023-07-31T19:18:02;71626.78;;;-144.13;91.35
76374;BME280;65197;50.164;8.012;2023-07-31T19:20:29;71626.78;;;-144.13;91.85
76374;BME280;65197;50.164;8.012;2023-07-31T19:22:54;71626.78;;;-144.13;91.72
76374;BME280;65197;50.164;8.012;2023-07-31T19:25:20;71622.88;;;-144.13;91.71
76374;BME280;65197;50.164;8.012;2023-07-31T19:27:45;71622.88;;;-144.13;91.76
76374;BME280;65197;50.164;8.012;2023-07-31T19:30:11;71626.78;;;-144.13;91.60
76374;BME280;65197;50.164;8.012;2023-07-31T19:32:36;71628.72;;;-144.13;92.07
76374;BME280;65197;50.164;8.012;2023-07-31T19:35:02;71624.81;;;-144.13;91.98
76374;BME280;65197;50.164;8.012;2023-07-31T19:37:28;71626.78;;;-144.13;91.81
76374;BME280;65197;50.164;8.012;2023-07-31T19:39:56;71626.78;;;-144.13;93.65
76374;BME280;65197;50.164;8.012;2023-07-31T19:42:23;71642.38;;;-144.13;95.82
76374;BME280;65197;50.164;8.012;2023-07-31T19:44:48;71657.97;;;-144.13;96.73
76374;BME280;65197;50.164;8.012;2023-07-31T19:47:14;71665.78;;;-144.13;98.27
76374;BME280;65197;50.164;8.012;2023-07-31T19:49:39;71669.66;;;-144.13;99.32
76374;BME280;65197;50.164;8.012;2023-07-31T19:52:05;71673.56;;;-144.13;99.44
76374;BME280;65197;50.164;8.012;2023-07-31T19:54:30;71677.47;;;-144.13;100.00
76374;BME280;65197;50.164;8.012;2023-07-31T19:56:56;71689.16;;;-144.13;100.00
76374;BME280;65197;50.164;8.012;2023-07-31T19:59:22;71693.06;;;-144.13;100.00
76374;BME280;65197;50.164;8.012;2023-07-31T20:01:48;71693.06;;;-144.13;100.00
76374;BME280;65197;50.164;8.012;2023-07-31T20:04:13;71687.22;;;-144.13;100.00
76374;BME280;65197;50.164;8.012;2023-07-31T20:06:39;71693.06;;;-144.13;100.00
76374;BME280;65197;50.164;8.012;2023-07-31T20:09:04;71700.88;;;-144.13;100.00
76374;BME280;65197;50.164;8.012;2023-07-31T20:11:30;71700.88;;;-144.13;100.00
76374;BME280;65197;50.164;8.012;2023-07-31T20:13:56;71704.75;;;-144.13;100.00
76374;BME280;65197;50.164;8.012;2023-07-31T20:16:21;71704.75;;;-144.13;100.00
76374;BME280;65197;50.164;8.012;2023-07-31T20:18:48;71712.56;;;-144.13;100.00
76374;BME280;65197;50.164;8.012;2023-07-31T20:21:13;71716.47;;;-144.13;100.00
76374;BME280;65197;50.164;8.012;2023-07-31T20:23:39;71726.22;;;-144.13;100.00
76374;BME280;65197;50.164;8.012;2023-07-31T20:26:06;71720.38;;;-144.13;100.00
76374;BME280;65197;50.164;8.012;2023-07-31T20:28:32;71722.31;;;-144.13;100.00
76374;BME280;65197;50.164;8.012;2023-07-31T20:30:57;71724.25;;;-144.13;100.00
76374;BME280;65197;50.164;8.012;2023-07-31T20:33:23;71730.13;;;-144.13;100.00
76374;BME280;65197;50.164;8.012;2023-07-31T20:35:48;71728.16;;;-144.13;100.00
76374;BME280;65197;50.164;8.012;2023-07-31T20:38:13;71716.47;;;-144.13;100.00
76374;BME280;65197;50.164;8.012;2023-07-31T20:40:39;71714.50;;;-144.13;100.00
76374;BME280;65197;50.164;8.012;2023-07-31T20:43:04;71720.38;;;-144.13;100.00
76374;BME280;65197;50.164;8.012;2023-07-31T20:45:29;71716.47;;;-144.13;100.00
76374;BME280;65197;50.164;8.012;2023-07-31T20:48:01;71712.56;;;-144.13;100.00
76374;BME280;65197;50.164;8.012;2023-07-31T20:50:27;71706.72;;;-144.13;100.00
76374;BME280;65197;50.164;8.012;2023-07-31T20:52:53;71704.75;;;-144.13;100.00
76374;BME280;65197;50.164;8.012;2023-07-31T20:55:19;71696.97;;;-144.13;100.00
76374;BME280;65197;50.164;8.012;2023-07-31T20:57:44;71700.88;;;-144.13;100.00
76374;BME280;65197;50.164;8.012;2023-07-31T21:00:10;71700.88;;;-144.13;100.00
76374;BME280;65197;50.164;8.012;2023-07-31T21:02:40;71695.00;;;-144.13;100.00
76374;BME280;65197;50.164;8.012;2023-07-31T21:05:06;71693.06;;;-144.13;100.00
76374;BME280;65197;50.164;8.012;2023-07-31T21:07:32;71689.16;;;-144.13;100.00
76374;BME280;65197;50.164;8.012;2023-07-31T21:09:58;71685.28;;;-144.13;100.00
76374;BME280;65197;50.164;8.012;2023-07-31T21:12:23;71677.47;;;-144.13;100.00
76374;BME280;65197;50.164;8.012;2023-07-31T21:14:48;71675.50;;;-144.13;100.00
76374;BME280;65197;50.164;8.012;2023-07-31T21:17:14;71673.56;;;-144.13;100.00
76374;BME280;65197;50.164;8.012;2023-07-31T21:19:42;71665.78;;;-144.13;100.00
76374;BME280;65197;50.164;8.012;2023-07-31T21:22:09;71663.81;;;-144.13;100.00
76374;BME280;65197;50.164;8.012;2023-07-31T21:24:34;71661.88;;;-144.13;100.00
76374;BME280;65197;50.164;8.012;2023-07-31T21:27:00;71661.88;;;-144.13;100.00
76374;BME280;65197;50.164;8.012;2023-07-31T21:29:25;71654.06;;;-144.13;100.00
76374;BME280;65197;50.164;8.012;2023-07-31T21:31:50;71657.97;;;-144.13;100.00
76374;BME280;65197;50.164;8.012;2023-07-31T21:34:16;71652.13;;;-144.13;100.00
76374;BME280;65197;50.164;8.012;2023-07-31T21:36:41;71640.41;;;-144.13;100.00
76374;BME280;65197;50.164;8.012;2023-07-31T21:39:07;71640.41;;;-144.13;100.00
76374;BME280;65197;50.164;8.012;2023-07-31T21:41:32;71636.53;;;-144.13;100.00
76374;BME280;65197;50.164;8.012;2023-07-31T21:43:58;71630.66;;;-144.13;100.00
76374;BME280;65197;50.164;8.012;2023-07-31T21:46:23;71626.78;;;-144.13;100.00
76374;BME280;65197;50.164;8.012;2023-07-31T21:48:49;71626.78;;;-144.13;100.00
76374;BME280;65197;50.164;8.012;2023-07-31T21:51:14;71617.03;;;-144.13;100.00
76374;BME280;65197;50.164;8.012;2023-07-31T21:53:40;71615.06;;;-144.13;100.00
76374;BME280;65197;50.164;8.012;2023-07-31T21:56:05;71603.38;;;-144.13;100.00
76374;BME280;65197;50.164;8.012;2023-07-31T21:58:30;71605.31;;;-144.13;100.00
76374;BME280;65197;50.164;8.012;2023-07-31T22:00:56;71607.28;;;-144.13;100.00
76374;BME280;65197;50.164;8.012;2023-07-31T22:03:21;71603.38;;;-144.13;100.00
76374;BME280;65197;50.164;8.012;2023-07-31T22:05:47;71597.53;;;-144.13;100.00
76374;BME280;65197;50.164;8.012;2023-07-31T22:08:12;71591.69;;;-144.13;100.00
76374;BME280;65197;50.164;8.012;2023-07-31T22:10:37;71591.69;;;-144.13;100.00
76374;BME280;65197;50.164;8.012;2023-07-31T22:13:03;71583.88;;;-144.13;100.00
76374;BME280;65197;50.164;8.012;2023-07-31T22:15:28;71585.81;;;-144.13;100.00
76374;BME280;65197;50.164;8.012;2023-07-31T22:17:53;71579.97;;;-144.13;100.00
76374;BME280;65197;50.164;8.012;2023-07-31T22:20:19;71576.06;;;-144.13;100.00
76374;BME280;65197;50.164;8.012;2023-07-31T22:22:44;71572.19;;;-144.13;100.00
76374;BME280;65197;50.164;8.012;2023-07-31T22:25:10;71568.28;;;-144.13;100.00
76374;BME280;65197;50.164;8.012;2023-07-31T22:27:35;71570.22;;;-144.13;100.00
76374;BME280;65197;50.164;8.012;2023-07-31T22:30:01;71564.38;;;-144.13;100.00
76374;BME280;65197;50.164;8.012;2023-07-31T22:32:26;71564.38;;;-144.13;100.00
76374;BME280;65197;50.164;8.012;2023-07-31T22:34:51;71556.56;;;-144.13;100.00
76374;BME280;65197;50.164;8.012;2023-07-31T22:37:17;71554.63;;;-144.13;100.00
76374;BME280;65197;50.164;8.012;2023-07-31T22:39:42;71544.88;;;-144.13;100.00
76374;BME280;65197;50.164;8.012;2023-07-31T22:42:08;71537.09;;;-144.13;100.00
76374;BME280;65197;50.164;8.012;2023-07-31T22:44:33;71540.97;;;-144.13;100.00
76374;BME280;65197;50.164;8.012;2023-07-31T22:46:58;71537.09;;;-144.13;100.00
76374;BME280;65197;50.164;8.012;2023-07-31T22:49:24;71533.19;;;-144.13;100.00
76374;BME280;65197;50.164;8.012;2023-07-31T22:51:49;71525.38;;;-144.13;100.00
76374;BME280;65197;50.164;8.012;2023-07-31T22:54:14;71525.38;;;-144.13;100.00
76374;BME280;65197;50.164;8.012;2023-07-31T22:56:40;71525.38;;;-144.13;100.00
76374;BME280;65197;50.164;8.012;2023-07-31T22:59:06;71525.38;;;-144.13;100.00
76374;BME280;65197;50.164;8.012;2023-07-31T23:01:32;71529.28;;;-144.13;100.00
76374;BME280;65197;50.164;8.012;2023-07-31T23:03:57;71527.34;;;-144.13;100.00
76374;BME280;65197;50.164;8.012;2023-07-31T23:06:22;71519.53;;;-144.13;100.00
76374;BME280;65197;50.164;8.012;2023-07-31T23:08:48;71502.00;;;-144.13;100.00
76374;BME280;65197;50.164;8.012;2023-07-31T23:11:13;71502.00;;;-144.13;100.00
76374;BME280;65197;50.164;8.012;2023-07-31T23:13:39;71492.25;;;-144.13;100.00
76374;BME280;65197;50.164;8.012;2023-07-31T23:16:04;71490.28;;;-144.13;100.00
76374;BME280;65197;50.164;8.012;2023-07-31T23:18:29;71486.38;;;-144.13;100.00
76374;BME280;65197;50.164;8.012;2023-07-31T23:20:55;71484.44;;;-144.13;100.00
76374;BME280;65197;50.164;8.012;2023-07-31T23:23:22;71476.63;;;-144.13;100.00
76374;BME280;65197;50.164;8.012;2023-07-31T23:25:48;71470.78;;;-144.13;100.00
76374;BME280;65197;50.164;8.012;2023-07-31T23:28:13;71472.75;;;-144.13;100.00
76374;BME280;65197;50.164;8.012;2023-07-31T23:30:39;71463.00;;;-144.13;100.00
76374;BME280;65197;50.164;8.012;2023-07-31T23:33:05;71459.09;;;-144.13;100.00
76374;BME280;65197;50.164;8.012;2023-07-31T23:35:30;71453.25;;;-144.13;100.00
76374;BME280;65197;50.164;8.012;2023-07-31T23:37:56;71447.41;;;-144.13;100.00
76374;BME280;65197;50.164;8.012;2023-07-31T23:40:21;71443.50;;;-144.13;100.00
76374;BME280;65197;50.164;8.012;2023-07-31T23:42:47;71443.50;;;-144.13;100.00
76374;BME280;65197;50.164;8.012;2023-07-31T23:45:14;71439.59;;;-144.13;100.00
76374;BME280;65197;50.164;8.012;2023-07-31T23:47:40;71443.50;;;-144.13;100.00
76374;BME280;65197;50.164;8.012;2023-07-31T23:50:07;71435.69;;;-144.13;100.00
76374;BME280;65197;50.164;8.012;2023-07-31T23:52:33;71433.75;;;-144.13;100.00
76374;BME280;65197;50.164;8.012;2023-07-31T23:54:59;71427.91;;;-144.13;100.00
76374;BME280;65197;50.164;8.012;2023-07-31T23:57:25;71422.03;;;-144.13;100.00
76374;BME280;65197;50.164;8.012;2023-07-31T23:59:50;71416.19;;;-144.13;100.00
